createdAt,value
2022-08-26T00:01:56.921Z,52.70
2022-08-26T00:04:25.407Z,53.35
2022-08-26T00:06:53.548Z,53.21
2022-08-26T00:09:20.587Z,53.67
2022-08-26T00:11:47.403Z,53.47
2022-08-26T00:14:16.352Z,53.68
2022-08-26T00:16:47.851Z,53.78
2022-08-26T00:19:20.214Z,52.92
2022-08-26T00:21:48.743Z,52.98
2022-08-26T00:24:17.700Z,53.32
2022-08-26T00:26:44.766Z,53.06
2022-08-26T00:29:12.226Z,52.59
2022-08-26T00:31:40.774Z,52.44
2022-08-26T00:34:09.412Z,52.13
2022-08-26T00:36:37.032Z,52.11
2022-08-26T00:39:04.382Z,52.28
2022-08-26T00:41:31.034Z,52.04
2022-08-26T00:43:57.735Z,51.78
2022-08-26T00:46:32.146Z,51.89
2022-08-26T00:49:11.983Z,51.87
2022-08-26T00:51:48.374Z,51.98
2022-08-26T00:54:16.110Z,51.57
2022-08-26T00:56:57.840Z,51.26
2022-08-26T00:59:27.574Z,51.53
2022-08-26T01:01:54.434Z,51.49
2022-08-26T01:04:23.333Z,51.37
2022-08-26T01:06:52.759Z,51.91
2022-08-26T01:09:21.362Z,51.93
2022-08-26T01:11:49.957Z,51.75
2022-08-26T01:14:19.644Z,52.34
2022-08-26T01:16:48.116Z,52.25
2022-08-26T01:19:32.359Z,51.84
2022-08-26T01:22:50.481Z,52.31
2022-08-26T01:25:20.164Z,51.62
2022-08-26T01:27:47.010Z,51.72
2022-08-26T01:30:17.130Z,51.27
2022-08-26T01:32:45.280Z,51.25
2022-08-26T01:35:12.191Z,51.36
2022-08-26T01:37:40.981Z,51.72
2022-08-26T01:40:14.026Z,51.69
2022-08-26T01:42:44.468Z,52.21
2022-08-26T01:45:18.548Z,52.37
2022-08-26T01:47:48.940Z,52.39
2022-08-26T01:50:28.098Z,52.62
2022-08-26T01:53:00.548Z,52.59
2022-08-26T01:55:32.999Z,53.08
2022-08-26T01:58:05.570Z,53.19
2022-08-26T02:00:33.712Z,53.25
2022-08-26T02:03:21.403Z,53.16
2022-08-26T02:05:51.242Z,53.39
2022-08-26T02:08:24.609Z,53.24
2022-08-26T02:10:54.758Z,53.37
2022-08-26T02:13:23.285Z,53.31
2022-08-26T02:15:52.259Z,53.07
2022-08-26T02:18:19.456Z,53.08
2022-08-26T02:20:46.295Z,52.93
2022-08-26T02:23:13.029Z,53.19
2022-08-26T02:26:19.207Z,53.11
2022-08-26T02:29:24.543Z,53.18
2022-08-26T02:31:52.946Z,53.24
2022-08-26T02:34:32.029Z,52.86
2022-08-26T02:37:01.219Z,53.05
2022-08-26T02:39:29.632Z,53.42
2022-08-26T02:41:56.813Z,53.28
2022-08-26T02:44:23.701Z,52.97
2022-08-26T02:46:52.878Z,53.41
2022-08-26T02:49:21.886Z,53.43
2022-08-26T02:51:49.613Z,53.77
2022-08-26T02:54:17.601Z,53.93
2022-08-26T02:56:45.039Z,54.25
2022-08-26T02:59:14.579Z,54.67
2022-08-26T03:01:41.780Z,54.54
2022-08-26T03:04:12.235Z,56.23
2022-08-26T03:06:40.755Z,56.67
2022-08-26T03:09:09.092Z,57.42
2022-08-26T03:11:36.766Z,56.63
2022-08-26T03:14:04.565Z,57.17
2022-08-26T03:16:33.220Z,57.56
2022-08-26T03:19:01.051Z,58.53
2022-08-26T03:21:27.940Z,59.08
2022-08-26T03:23:54.911Z,58.45
2022-08-26T03:26:25.798Z,58.84
2022-08-26T03:29:11.027Z,59.11
2022-08-26T03:31:37.743Z,59.02
2022-08-26T03:34:04.711Z,57.74
2022-08-26T03:36:31.603Z,57.72
2022-08-26T03:38:58.582Z,58.63
2022-08-26T03:41:25.308Z,58.41
2022-08-26T03:43:52.334Z,58.72
2022-08-26T03:46:20.604Z,59.33
2022-08-26T03:48:48.132Z,60.07
2022-08-26T03:51:19.096Z,60.24
2022-08-26T03:53:46.963Z,59.77
2022-08-26T03:56:15.240Z,59.98
2022-08-26T03:58:44.396Z,59.64
2022-08-26T04:01:12.597Z,59.18
2022-08-26T04:03:57.794Z,58.98
2022-08-26T04:06:32.841Z,59.04
2022-08-26T04:09:01.920Z,59.22
2022-08-26T04:11:32.116Z,59.41
2022-08-26T04:14:04.350Z,58.74
2022-08-26T04:16:32.066Z,58.90
2022-08-26T04:18:58.988Z,58.47
2022-08-26T04:21:26.815Z,58.58
2022-08-26T04:23:54.039Z,59.53
2022-08-26T04:26:22.404Z,59.49
2022-08-26T04:28:51.002Z,58.78
2022-08-26T04:31:19.156Z,58.02
2022-08-26T04:33:49.732Z,57.40
2022-08-26T04:36:17.562Z,57.56
2022-08-26T04:38:47.009Z,58.16
2022-08-26T04:41:15.011Z,57.65
2022-08-26T04:43:44.078Z,58.65
2022-08-26T04:46:12.990Z,58.41
2022-08-26T04:48:41.158Z,57.77
2022-08-26T04:51:09.930Z,58.61
2022-08-26T04:53:37.551Z,58.08
2022-08-26T04:56:05.148Z,58.59
2022-08-26T04:58:32.321Z,58.30
2022-08-26T05:00:59.473Z,59.30
2022-08-26T05:03:28.305Z,58.24
2022-08-26T05:05:58.009Z,58.89
2022-08-26T05:08:25.174Z,58.31
2022-08-26T05:10:56.555Z,58.50
2022-08-26T05:13:26.297Z,58.03
2022-08-26T05:15:53.516Z,57.58
2022-08-26T05:18:23.096Z,57.86
2022-08-26T05:20:54.806Z,57.74
2022-08-26T05:23:23.365Z,57.68
2022-08-26T05:25:55.805Z,57.00
2022-08-26T05:28:26.291Z,57.37
2022-08-26T05:30:53.242Z,57.13
2022-08-26T05:33:20.168Z,56.88
2022-08-26T05:35:47.164Z,57.00
2022-08-26T05:38:17.620Z,56.54
2022-08-26T05:40:47.650Z,56.64
2022-08-26T05:43:14.975Z,57.21
2022-08-26T05:45:47.795Z,56.05
2022-08-26T05:48:18.225Z,56.04
2022-08-26T05:50:47.977Z,56.63
2022-08-26T05:53:17.425Z,56.90
2022-08-26T05:55:49.562Z,56.45
2022-08-26T05:58:17.386Z,56.21
2022-08-26T06:00:44.643Z,56.70
2022-08-26T06:03:11.719Z,55.99
2022-08-26T06:05:41.918Z,55.16
2022-08-26T06:08:13.611Z,56.51
2022-08-26T06:10:44.895Z,57.20
2022-08-26T06:13:13.609Z,57.07
2022-08-26T06:15:43.073Z,57.48
2022-08-26T06:18:11.276Z,56.18
2022-08-26T06:20:43.597Z,55.38
2022-08-26T06:23:40.451Z,55.50
2022-08-26T06:26:07.679Z,54.76
2022-08-26T06:28:37.833Z,54.90
2022-08-26T06:31:06.158Z,54.28
2022-08-26T06:33:33.100Z,54.19
2022-08-26T06:36:01.204Z,54.12
2022-08-26T06:38:28.335Z,53.40
2022-08-26T06:40:55.003Z,53.40
2022-08-26T06:43:24.568Z,53.23
2022-08-26T06:45:51.739Z,52.78
2022-08-26T06:48:20.469Z,53.35
2022-08-26T06:50:48.214Z,53.03
2022-08-26T06:53:17.071Z,52.89
2022-08-26T06:55:46.206Z,52.49
2022-08-26T06:58:14.432Z,52.53
2022-08-26T07:00:41.696Z,52.01
2022-08-26T07:03:14.423Z,52.05
2022-08-26T07:05:41.134Z,51.97
2022-08-26T07:08:08.059Z,52.17
2022-08-26T07:10:36.383Z,52.57
2022-08-26T07:13:03.001Z,51.72
2022-08-26T07:15:33.687Z,51.77
2022-08-26T07:18:00.357Z,51.93
2022-08-26T07:20:27.194Z,52.23
2022-08-26T07:22:54.137Z,50.84
2022-08-26T07:25:21.137Z,50.88
2022-08-26T07:27:54.369Z,50.56
2022-08-26T07:30:21.705Z,50.32
2022-08-26T07:32:48.410Z,50.92
2022-08-26T07:35:15.346Z,51.45
2022-08-26T07:37:42.984Z,51.69
2022-08-26T07:40:10.500Z,50.78
2022-08-26T07:42:37.367Z,51.08
2022-08-26T07:45:05.132Z,50.10
2022-08-26T07:47:31.763Z,50.71
2022-08-26T07:49:58.638Z,51.16
2022-08-26T07:52:28.060Z,50.70
2022-08-26T07:55:13.448Z,50.78
2022-08-26T07:57:40.339Z,51.43
2022-08-26T08:00:11.186Z,51.55
2022-08-26T08:02:38.066Z,50.88
2022-08-26T08:05:06.239Z,51.14
2022-08-26T08:07:44.513Z,51.65
2022-08-26T08:10:25.019Z,51.39
2022-08-26T08:12:53.162Z,52.15
2022-08-26T08:15:21.849Z,51.26
2022-08-26T08:17:50.428Z,52.18
2022-08-26T08:20:18.907Z,51.49
2022-08-26T08:22:46.085Z,51.44
2022-08-26T08:25:14.788Z,51.54
2022-08-26T08:27:43.293Z,50.92
2022-08-26T08:30:10.831Z,51.15
2022-08-26T08:32:41.300Z,50.32
2022-08-26T08:35:10.857Z,50.40
2022-08-26T08:37:38.393Z,51.37
2022-08-26T08:40:07.443Z,50.29
2022-08-26T08:42:46.951Z,49.84
2022-08-26T08:45:23.160Z,49.53
2022-08-26T08:47:58.463Z,49.48
2022-08-26T08:50:31.353Z,49.47
2022-08-26T08:53:02.340Z,49.38
2022-08-26T08:55:41.089Z,50.78
2022-08-26T08:58:13.537Z,49.73
2022-08-26T09:00:54.481Z,51.10
2022-08-26T09:03:38.195Z,50.38
2022-08-26T09:06:17.392Z,49.76
2022-08-26T09:08:47.277Z,49.73
2022-08-26T09:11:18.000Z,48.99
2022-08-26T09:13:50.207Z,49.49
2022-08-26T09:16:35.164Z,48.61
2022-08-26T09:19:08.768Z,48.69
2022-08-26T09:21:35.930Z,48.99
2022-08-26T09:24:02.830Z,48.67
2022-08-26T09:26:41.255Z,49.27
2022-08-26T09:29:26.898Z,49.54
2022-08-26T09:32:21.254Z,49.72
2022-08-26T09:35:22.782Z,49.76
2022-08-26T09:40:23.070Z,49.68
2022-08-26T09:43:16.051Z,49.27
2022-08-26T09:45:59.426Z,49.23
2022-08-26T09:48:34.798Z,47.90
2022-08-26T09:51:05.682Z,48.07
2022-08-26T09:53:51.280Z,47.93
2022-08-26T09:56:36.909Z,48.47
2022-08-26T09:59:10.994Z,47.48
2022-08-26T10:01:43.816Z,45.78
2022-08-26T10:04:20.115Z,45.54
2022-08-26T10:07:02.149Z,45.92
2022-08-26T10:09:29.947Z,45.09
2022-08-26T10:12:04.376Z,45.10
2022-08-26T10:14:37.292Z,46.03
2022-08-26T10:17:11.392Z,46.36
2022-08-26T10:19:56.549Z,45.16
2022-08-26T10:22:37.317Z,46.36
2022-08-26T10:25:08.151Z,45.89
2022-08-26T10:27:48.439Z,46.04
2022-08-26T10:30:24.385Z,46.16
2022-08-26T10:32:58.006Z,44.31
2022-08-26T10:35:27.159Z,45.12
2022-08-26T10:37:58.579Z,42.89
2022-08-26T10:40:29.457Z,44.89
2022-08-26T10:43:10.915Z,44.79
2022-08-26T10:45:47.063Z,45.13
2022-08-26T10:48:19.732Z,45.34
2022-08-26T10:50:48.187Z,45.57
2022-08-26T10:53:25.383Z,43.78
2022-08-26T10:56:25.014Z,45.05
2022-08-26T10:59:12.450Z,44.80
2022-08-26T11:01:46.955Z,44.88
2022-08-26T11:04:23.390Z,45.22
2022-08-26T11:07:32.474Z,43.83
2022-08-26T11:10:05.070Z,42.70
2022-08-26T11:12:34.681Z,42.14
2022-08-26T11:15:13.691Z,41.41
2022-08-26T11:17:46.525Z,40.67
2022-08-26T11:20:36.480Z,40.84
2022-08-26T11:23:27.389Z,40.68
2022-08-26T11:26:09.375Z,41.40
2022-08-26T11:28:35.915Z,39.74
2022-08-26T11:31:04.556Z,37.74
2022-08-26T11:33:59.145Z,37.39
2022-08-26T11:36:45.481Z,37.88
2022-08-26T11:39:18.079Z,38.61
2022-08-26T11:41:47.149Z,38.79
2022-08-26T11:44:40.009Z,39.14
2022-08-26T11:47:11.469Z,40.49
2022-08-26T11:49:38.801Z,41.60
2022-08-26T11:52:18.045Z,42.03
2022-08-26T11:55:08.870Z,41.12
2022-08-26T11:57:45.971Z,40.51
2022-08-26T12:00:26.462Z,39.94
2022-08-26T12:02:55.698Z,41.00
2022-08-26T12:05:31.151Z,41.50
2022-08-26T12:08:03.495Z,39.93
2022-08-26T12:10:33.839Z,39.13
2022-08-26T12:13:02.737Z,39.55
2022-08-26T12:15:32.854Z,38.38
2022-08-26T12:18:28.851Z,38.71
2022-08-26T12:20:58.014Z,39.79
2022-08-26T12:23:36.699Z,40.29
2022-08-26T12:26:26.268Z,40.02
2022-08-26T12:28:57.451Z,38.79
2022-08-26T12:31:44.426Z,39.11
2022-08-26T12:34:18.695Z,40.00
2022-08-26T12:39:29.744Z,40.65
2022-08-26T12:42:20.963Z,39.00
2022-08-26T12:44:58.594Z,38.99
2022-08-26T12:47:33.841Z,39.20
2022-08-26T12:50:26.557Z,36.83
2022-08-26T12:53:15.715Z,35.58
2022-08-26T12:55:49.111Z,35.53
2022-08-26T12:58:15.772Z,36.81
2022-08-26T13:00:51.403Z,37.98
2022-08-26T13:03:45.655Z,39.19
2022-08-26T13:06:27.865Z,39.89
2022-08-26T13:08:59.554Z,41.17
2022-08-26T13:11:41.551Z,41.99
2022-08-26T13:14:18.327Z,41.79
2022-08-26T13:16:49.358Z,42.20
2022-08-26T13:19:25.868Z,42.27
2022-08-26T13:21:57.473Z,42.11
2022-08-26T13:24:37.159Z,42.37
2022-08-26T13:27:05.762Z,42.78
2022-08-26T13:29:32.658Z,42.22
2022-08-26T13:32:00.229Z,42.44
2022-08-26T13:34:29.939Z,42.57
2022-08-26T13:36:57.988Z,42.67
2022-08-26T13:39:26.654Z,42.65
2022-08-26T13:41:53.815Z,41.32
2022-08-26T13:44:21.645Z,41.79
2022-08-26T13:46:48.439Z,41.53
2022-08-26T13:49:15.591Z,41.93
2022-08-26T13:51:42.667Z,41.72
2022-08-26T13:54:09.457Z,41.23
2022-08-26T13:56:37.559Z,40.71
2022-08-26T13:59:04.817Z,41.35
2022-08-26T14:01:33.028Z,41.22
2022-08-26T14:03:59.772Z,40.95
2022-08-26T14:06:26.756Z,40.45
2022-08-26T14:08:53.503Z,39.16
2022-08-26T14:11:21.480Z,39.68
2022-08-26T14:13:50.836Z,39.95
2022-08-26T14:16:25.939Z,40.17
2022-08-26T14:18:53.096Z,41.11
2022-08-26T14:21:20.375Z,41.66
2022-08-26T14:23:47.139Z,42.29
2022-08-26T14:26:28.890Z,42.92
2022-08-26T14:29:01.538Z,42.42
2022-08-26T14:31:31.773Z,42.29
2022-08-26T14:34:06.004Z,42.90
2022-08-26T14:36:33.308Z,43.16
2022-08-26T14:39:06.130Z,43.92
2022-08-26T14:41:35.445Z,44.27
2022-08-26T14:44:06.008Z,44.76
2022-08-26T14:46:38.668Z,44.01
2022-08-26T14:49:09.906Z,43.80
2022-08-26T14:51:37.283Z,44.24
2022-08-26T14:54:12.831Z,44.25
2022-08-26T14:57:02.282Z,44.27
2022-08-26T14:59:35.374Z,43.86
2022-08-26T15:02:02.329Z,44.09
2022-08-26T15:04:32.036Z,44.50
2022-08-26T15:07:00.678Z,44.66
2022-08-26T15:09:29.075Z,44.49
2022-08-26T15:11:56.259Z,44.42
2022-08-26T15:14:25.443Z,44.83
2022-08-26T15:16:56.278Z,44.26
2022-08-26T15:19:27.455Z,42.31
2022-08-26T15:21:54.953Z,43.02
2022-08-26T15:24:25.163Z,43.80
2022-08-26T15:26:53.243Z,43.84
2022-08-26T15:29:20.883Z,44.00
2022-08-26T15:31:48.828Z,44.42
2022-08-26T15:34:16.960Z,44.75
2022-08-26T15:36:46.033Z,43.60
2022-08-26T15:39:13.710Z,43.11
2022-08-26T15:41:42.389Z,42.81
2022-08-26T15:44:10.912Z,42.36
2022-08-26T15:46:38.424Z,43.28
2022-08-26T15:49:05.933Z,42.78
2022-08-26T15:51:45.624Z,42.53
2022-08-26T15:54:16.356Z,41.67
2022-08-26T15:56:43.539Z,41.94
2022-08-26T15:59:11.814Z,42.28
2022-08-26T16:01:39.918Z,42.96
2022-08-26T16:04:06.751Z,42.75
2022-08-26T16:06:35.719Z,43.54
2022-08-26T16:09:04.864Z,43.62
2022-08-26T16:11:36.070Z,43.69
2022-08-26T16:14:04.623Z,43.71
2022-08-26T16:16:32.682Z,43.81
2022-08-26T16:19:07.363Z,43.08
2022-08-26T16:21:35.366Z,41.88
2022-08-26T16:24:03.816Z,41.81
2022-08-26T16:26:33.368Z,41.74
2022-08-26T16:29:06.785Z,41.98
2022-08-26T16:31:33.914Z,41.82
2022-08-26T16:34:00.778Z,41.94
2022-08-26T16:36:27.579Z,41.38
2022-08-26T16:38:56.527Z,42.03
2022-08-26T16:41:29.935Z,43.05
2022-08-26T16:43:57.642Z,42.11
2022-08-26T16:46:26.269Z,41.50
2022-08-26T16:48:58.026Z,41.91
2022-08-26T16:51:27.164Z,42.07
2022-08-26T16:53:56.349Z,42.44
2022-08-26T16:56:33.547Z,42.42
2022-08-26T16:59:02.878Z,42.07
2022-08-26T17:01:30.104Z,41.74
2022-08-26T17:03:57.185Z,41.77
2022-08-26T17:06:23.927Z,42.04
2022-08-26T17:08:50.598Z,42.49
2022-08-26T17:11:17.356Z,42.33
2022-08-26T17:13:44.206Z,42.59
2022-08-26T17:16:12.739Z,42.93
2022-08-26T17:18:39.638Z,42.43
2022-08-26T17:21:10.052Z,42.34
2022-08-26T17:23:37.984Z,42.88
2022-08-26T17:26:05.997Z,43.10
2022-08-26T17:28:33.369Z,43.59
2022-08-26T17:31:01.103Z,43.90
2022-08-26T17:33:28.872Z,43.88
2022-08-26T17:35:56.202Z,44.38
2022-08-26T17:38:23.716Z,44.29
2022-08-26T17:40:51.230Z,43.84
2022-08-26T17:43:18.805Z,44.50
2022-08-26T17:45:45.961Z,44.27
2022-08-26T17:48:13.872Z,44.85
2022-08-26T17:50:42.717Z,44.75
2022-08-26T17:53:12.629Z,45.27
2022-08-26T17:55:47.174Z,44.82
2022-08-26T17:58:14.919Z,44.84
2022-08-26T18:00:51.113Z,45.03
2022-08-26T18:03:19.307Z,45.24
2022-08-26T18:05:52.640Z,45.64
2022-08-26T18:08:20.718Z,45.69
2022-08-26T18:10:48.371Z,45.77
2022-08-26T18:13:15.542Z,46.96
2022-08-26T18:15:45.490Z,47.52
2022-08-26T18:18:14.655Z,46.56
2022-08-26T18:20:43.208Z,47.05
2022-08-26T18:23:11.010Z,46.90
2022-08-26T18:25:43.465Z,46.80
2022-08-26T18:28:10.813Z,47.94
2022-08-26T18:30:37.991Z,47.26
2022-08-26T18:33:05.155Z,48.70
2022-08-26T18:35:32.621Z,47.49
2022-08-26T18:38:05.195Z,48.10
2022-08-26T18:40:44.756Z,47.08
2022-08-26T18:43:12.649Z,46.55
2022-08-26T18:45:40.370Z,46.62
2022-08-26T18:48:07.367Z,48.22
2022-08-26T18:50:38.202Z,46.80
2022-08-26T18:53:04.976Z,46.34
2022-08-26T18:55:31.831Z,47.90
2022-08-26T18:58:01.769Z,46.58
2022-08-26T19:00:28.677Z,47.61
2022-08-26T19:02:56.000Z,46.77
2022-08-26T19:05:25.777Z,46.83
2022-08-26T19:07:53.011Z,47.00
2022-08-26T19:10:20.466Z,47.02
2022-08-26T19:12:51.860Z,47.84
2022-08-26T19:15:19.499Z,47.55
2022-08-26T19:17:50.373Z,48.39
2022-08-26T19:20:17.867Z,47.91
2022-08-26T19:22:46.167Z,48.11
2022-08-26T19:25:14.248Z,47.62
2022-08-26T19:27:41.978Z,49.34
2022-08-26T19:30:09.934Z,48.18
2022-08-26T19:32:36.967Z,47.79
2022-08-26T19:35:04.375Z,47.93
2022-08-26T19:37:31.285Z,49.69
2022-08-26T19:39:58.518Z,50.06
2022-08-26T19:42:26.510Z,48.36
2022-08-26T19:45:24.669Z,47.40
2022-08-26T19:47:54.218Z,49.29
2022-08-26T19:50:22.621Z,49.57
2022-08-26T19:52:50.031Z,50.14
2022-08-26T19:55:18.832Z,50.04
2022-08-26T19:57:45.866Z,50.28
2022-08-26T20:00:18.325Z,50.23
2022-08-26T20:02:45.971Z,50.05
2022-08-26T20:05:14.142Z,50.86
2022-08-26T20:07:41.793Z,50.37
2022-08-26T20:10:12.911Z,50.20
2022-08-26T20:12:42.350Z,50.36
2022-08-26T20:15:12.338Z,50.58
2022-08-26T20:17:41.087Z,50.21
2022-08-26T20:20:33.226Z,50.54
2022-08-26T20:23:03.697Z,50.67
2022-08-26T20:25:33.060Z,50.87
2022-08-26T20:28:03.573Z,50.97
2022-08-26T20:30:31.269Z,50.76
2022-08-26T20:32:58.030Z,51.22
2022-08-26T20:35:25.504Z,51.32
2022-08-26T20:37:54.053Z,50.95
2022-08-26T20:40:23.518Z,51.42
2022-08-26T20:42:50.752Z,51.43
2022-08-26T20:45:17.791Z,51.52
2022-08-26T20:47:44.949Z,51.83
2022-08-26T20:50:11.701Z,51.43
2022-08-26T20:52:38.557Z,51.62
2022-08-26T20:55:05.817Z,51.42
2022-08-26T20:57:33.240Z,51.26
2022-08-26T21:00:01.270Z,51.17
2022-08-26T21:02:28.374Z,51.52
2022-08-26T21:04:56.433Z,51.98
2022-08-26T21:07:23.369Z,51.84
2022-08-26T21:09:50.037Z,51.79
2022-08-26T21:12:18.431Z,51.75
2022-08-26T21:14:49.426Z,52.11
2022-08-26T21:17:16.707Z,51.81
2022-08-26T21:19:44.526Z,51.85
2022-08-26T21:22:12.494Z,51.59
2022-08-26T21:24:39.228Z,51.71
2022-08-26T21:27:05.995Z,51.99
2022-08-26T21:29:32.734Z,52.25
2022-08-26T21:31:59.472Z,51.12
2022-08-26T21:34:26.946Z,51.67
2022-08-26T21:36:53.715Z,51.70
2022-08-26T21:39:20.456Z,51.78
2022-08-26T21:41:47.474Z,51.51
2022-08-26T21:44:16.092Z,50.84
2022-08-26T21:46:44.734Z,51.14
2022-08-26T21:49:13.954Z,50.92
2022-08-26T21:51:44.206Z,51.09
2022-08-26T21:54:12.256Z,50.57
2022-08-26T21:56:44.289Z,51.06
2022-08-26T21:59:11.380Z,51.54
2022-08-26T22:01:38.233Z,51.61
2022-08-26T22:04:08.365Z,51.83
2022-08-26T22:06:40.713Z,51.42
2022-08-26T22:09:07.558Z,51.15
2022-08-26T22:11:34.386Z,51.00
2022-08-26T22:14:01.172Z,51.30
2022-08-26T22:16:28.921Z,51.07
2022-08-26T22:18:55.842Z,51.38
2022-08-26T22:21:25.998Z,50.97
2022-08-26T22:23:57.968Z,51.50
2022-08-26T22:26:28.861Z,51.40
2022-08-26T22:28:58.967Z,51.29
2022-08-26T22:31:36.917Z,51.89
2022-08-26T22:34:10.043Z,51.46
2022-08-26T22:36:39.805Z,51.74
2022-08-26T22:39:11.851Z,51.78
2022-08-26T22:41:38.591Z,51.66
2022-08-26T22:44:05.848Z,51.95
2022-08-26T22:46:34.902Z,51.72
2022-08-26T22:49:01.714Z,51.50
2022-08-26T22:51:28.878Z,50.52
2022-08-26T22:53:55.672Z,51.21
2022-08-26T22:56:22.604Z,51.04
2022-08-26T22:58:49.374Z,51.22
2022-08-26T23:01:17.061Z,51.08
2022-08-26T23:03:44.459Z,51.36
2022-08-26T23:06:11.499Z,51.76
2022-08-26T23:08:39.600Z,51.99
2022-08-26T23:11:11.257Z,52.11
2022-08-26T23:13:39.165Z,52.07
2022-08-26T23:16:09.360Z,52.05
2022-08-26T23:18:36.515Z,52.41
2022-08-26T23:21:03.597Z,52.36
2022-08-26T23:23:31.244Z,52.46
2022-08-26T23:25:58.483Z,52.21
2022-08-26T23:28:26.476Z,51.92
2022-08-26T23:30:54.430Z,51.18
2022-08-26T23:33:21.627Z,51.99
2022-08-26T23:35:48.467Z,51.84
2022-08-26T23:38:16.671Z,52.35
2022-08-26T23:40:43.435Z,52.33
2022-08-26T23:43:13.866Z,52.35
2022-08-26T23:45:40.763Z,52.61
2022-08-26T23:48:08.060Z,51.74
2022-08-26T23:50:53.257Z,52.86
2022-08-26T23:53:22.409Z,52.72
2022-08-26T23:55:51.370Z,52.71
2022-08-26T23:58:19.979Z,52.34
